Time;durP1;ratioP1;P1;durP2;ratioP2;P2;SDS_P1;SDS_P2;PMS_P1;PMS_P2;Temp;Humidity;BMP_temperature;BMP_pressure;BME280_temperature;BME280_humidity;BME280_pressure;Samples;Min_cycle;Max_cycle;Signal;HPM_P1;HPM_P2
2023/06/07 00:01:28;;;;;;;12.50;5.58;;;;;;;10.94;54.33;100039.08;1573444;89;21097;-64
2023/06/07 00:03:56;;;;;;;8.65;5.12;;;;;;;10.92;54.29;100036.14;1536907;92;21054;-63
2023/06/07 00:06:23;;;;;;;10.63;5.12;;;;;;;10.90;54.38;100039.30;1546580;92;21013;-64
2023/06/07 00:08:50;;;;;;;11.47;5.50;;;;;;;10.84;54.39;100037.80;1583890;89;21099;-64
2023/06/07 00:11:20;;;;;;;9.20;4.80;;;;;;;10.83;54.56;100032.63;1597275;89;21031;-63
2023/06/07 00:13:46;;;;;;;11.35;5.47;;;;;;;10.79;54.65;100039.77;1583290;89;21032;-64
2023/06/07 00:16:15;;;;;;;7.03;4.95;;;;;;;10.77;54.80;100036.82;1550588;91;21545;-63
2023/06/07 00:18:42;;;;;;;11.35;5.25;;;;;;;10.75;54.93;100034.26;1599391;89;21060;-64
2023/06/07 00:21:08;;;;;;;11.95;5.60;;;;;;;10.74;54.90;100028.66;1611494;89;21072;-64
2023/06/07 00:23:35;;;;;;;11.40;5.37;;;;;;;10.73;54.99;100033.50;1595638;89;21064;-64
2023/06/07 00:26:02;;;;;;;12.80;5.62;;;;;;;10.73;55.24;100030.89;1602063;89;20996;-64
2023/06/07 00:28:28;;;;;;;6.43;4.47;;;;;;;10.71;55.16;100033.55;1555730;90;21012;-64
2023/06/07 00:30:54;;;;;;;10.48;5.72;;;;;;;10.68;55.25;100025.02;1594184;89;21944;-64
2023/06/07 00:33:21;;;;;;;13.13;4.90;;;;;;;10.65;55.28;100029.06;1594960;89;21603;-65
2023/06/07 00:35:48;;;;;;;7.20;5.03;;;;;;;10.65;55.46;100023.84;1551122;91;21076;-64
2023/06/07 00:38:15;;;;;;;13.70;5.08;;;;;;;10.60;55.44;100025.79;1549279;91;21065;-64
2023/06/07 00:40:41;;;;;;;11.33;5.17;;;;;;;10.59;55.67;100031.94;1589886;89;21456;-64
2023/06/07 00:43:07;;;;;;;10.48;5.60;;;;;;;10.61;55.65;100024.87;1585456;89;21080;-64
2023/06/07 00:45:33;;;;;;;14.38;5.08;;;;;;;10.60;55.81;100030.55;1578981;89;21013;-64
2023/06/07 00:48:01;;;;;;;10.75;4.65;;;;;;;10.61;55.76;100030.09;1595730;88;21080;-64
2023/06/07 00:50:28;;;;;;;9.33;4.70;;;;;;;10.61;55.89;100028.78;1592731;89;21087;-64
2023/06/07 00:52:55;;;;;;;10.93;5.62;;;;;;;10.64;56.05;100024.73;1591700;89;21014;-64
2023/06/07 00:55:21;;;;;;;12.47;5.28;;;;;;;10.65;56.23;100020.77;1602857;89;20997;-63
2023/06/07 00:57:48;;;;;;;9.73;5.47;;;;;;;10.62;56.30;100029.20;1594393;89;21455;-64
2023/06/07 01:00:15;;;;;;;8.98;4.67;;;;;;;10.58;56.32;100025.00;1582570;89;21103;-64
2023/06/07 01:02:45;;;;;;;9.20;6.10;;;;;;;10.53;56.50;100023.45;1582895;89;21053;-64
2023/06/07 01:05:11;;;;;;;16.25;5.75;;;;;;;10.50;56.53;100018.36;1582754;89;21160;-64
2023/06/07 01:07:37;;;;;;;8.18;5.15;;;;;;;10.46;56.64;100011.55;1525866;92;21052;-63
2023/06/07 01:10:06;;;;;;;7.03;4.70;;;;;;;10.42;56.80;100020.44;1523050;93;21032;-64
2023/06/07 01:12:34;;;;;;;9.40;4.65;;;;;;;10.37;56.74;100021.08;1568369;91;21028;-64
2023/06/07 01:15:06;;;;;;;7.58;4.95;;;;;;;10.31;56.71;100017.42;1568416;90;21134;-64
2023/06/07 01:17:31;;;;;;;8.03;5.05;;;;;;;10.25;56.80;100016.31;1567324;91;21618;-65
2023/06/07 01:20:04;;;;;;;7.97;4.87;;;;;;;10.20;56.89;100019.59;1560617;91;21049;-64
2023/06/07 01:22:29;;;;;;;9.70;5.50;;;;;;;10.17;57.04;100017.96;1522173;94;21068;-64
2023/06/07 01:25:00;;;;;;;6.83;4.12;;;;;;;10.17;57.14;100017.11;1585586;89;21012;-64
2023/06/07 01:27:30;;;;;;;7.90;5.00;;;;;;;10.17;57.09;100011.89;1577774;89;21040;-63
2023/06/07 01:29:58;;;;;;;7.78;4.40;;;;;;;10.05;57.09;100018.01;1577433;89;21112;-63
2023/06/07 01:32:25;;;;;;;10.75;5.10;;;;;;;9.95;57.25;100015.36;1578491;89;21016;-64
2023/06/07 01:34:52;;;;;;;11.78;5.37;;;;;;;9.87;57.45;100013.52;1579251;89;20976;-63
2023/06/07 01:37:20;;;;;;;6.03;4.00;;;;;;;9.85;57.90;100009.65;1579475;89;20990;-64
2023/06/07 01:39:47;;;;;;;7.12;4.05;;;;;;;9.91;57.90;100012.47;1525943;92;21022;-64
2023/06/07 01:42:15;;;;;;;6.55;4.45;;;;;;;9.83;57.92;100010.19;1556153;91;21080;-64
2023/06/07 01:44:45;;;;;;;5.12;3.98;;;;;;;9.81;58.01;100017.67;1586162;89;21010;-64
2023/06/07 01:47:14;;;;;;;8.18;4.90;;;;;;;9.83;58.29;100015.83;1525945;92;21070;-64
2023/06/07 01:49:42;;;;;;;8.10;3.47;;;;;;;9.86;58.29;100013.13;1522742;94;21068;-63
2023/06/07 01:52:08;;;;;;;15.65;4.97;;;;;;;9.86;58.31;100020.95;1548773;91;21064;-64
2023/06/07 01:54:36;;;;;;;5.12;3.67;;;;;;;9.91;58.48;100018.98;1526017;92;21096;-64
2023/06/07 01:57:04;;;;;;;;;;;;;;;9.91;58.61;100016.37;1554819;91;21049;-64
2023/06/07 01:59:43;;;;;;;7.47;4.78;;;;;;;9.94;58.87;100024.11;1547661;91;20226;-64
2023/06/07 02:02:29;;;;;;;8.73;4.10;;;;;;;9.98;58.73;100017.84;1553816;91;21112;-64
2023/06/07 02:04:59;;;;;;;7.58;4.37;;;;;;;10.00;58.69;100018.64;1545431;91;21603;-64
2023/06/07 02:07:28;;;;;;;12.90;5.70;;;;;;;10.04;58.93;100013.68;1585760;89;21011;-64
2023/06/07 02:09:58;;;;;;;7.05;5.15;;;;;;;10.08;58.98;100003.53;1589031;89;21088;-64
2023/06/07 02:12:24;;;;;;;10.35;6.00;;;;;;;10.07;58.88;100010.95;1591760;89;21044;-64
2023/06/07 02:14:52;;;;;;;6.67;4.65;;;;;;;10.03;58.89;100010.69;1584685;89;21389;-64
2023/06/07 02:17:21;;;;;;;10.78;5.75;;;;;;;9.99;58.95;100009.09;1588352;89;21048;-64
2023/06/07 02:19:49;;;;;;;9.98;4.83;;;;;;;9.98;59.01;100015.23;1550984;89;21575;-64
2023/06/07 02:22:15;;;;;;;13.13;5.42;;;;;;;9.95;59.08;100003.63;1601218;89;21659;-64
2023/06/07 02:24:46;;;;;;;6.87;4.60;;;;;;;9.93;59.20;100009.34;1590278;89;21051;-64
2023/06/07 02:27:12;;;;;;;13.48;5.83;;;;;;;9.93;59.30;100006.73;1589144;89;21105;-63
2023/06/07 02:29:39;;;;;;;11.63;4.87;;;;;;;9.92;59.37;100005.05;1590146;89;21100;-64
2023/06/07 02:32:07;;;;;;;7.40;4.67;;;;;;;9.89;59.33;100006.48;1590614;89;21047;-63
2023/06/07 02:34:33;;;;;;;8.08;5.15;;;;;;;9.86;59.29;100010.52;1548931;91;21096;-64
2023/06/07 02:37:00;;;;;;;10.98;4.45;;;;;;;9.83;59.26;100009.31;1547099;91;21033;-64
2023/06/07 02:39:27;;;;;;;9.63;4.87;;;;;;;9.78;59.36;100007.36;1600693;89;21064;-63
2023/06/07 02:41:57;;;;;;;9.70;5.08;;;;;;;9.77;59.56;100010.86;1604123;88;21585;-64
2023/06/07 02:44:21;;;;;;;9.03;5.08;;;;;;;9.81;59.61;100016.37;1589572;89;21091;-64
2023/06/07 02:46:47;;;;;;;7.00;4.58;;;;;;;9.78;59.63;100010.81;1590536;89;22254;-63
2023/06/07 02:49:14;;;;;;;12.13;4.62;;;;;;;9.81;59.71;100012.45;1577937;89;21094;-64
2023/06/07 02:51:40;;;;;;;9.25;5.00;;;;;;;9.81;59.85;100005.48;1551843;91;21037;-64
2023/06/07 02:54:08;;;;;;;6.60;3.80;;;;;;;9.84;59.88;100016.25;1548767;91;21007;-63
2023/06/07 02:56:35;;;;;;;13.83;5.10;;;;;;;9.82;60.00;100016.75;1548590;91;21152;-63
2023/06/07 02:59:01;;;;;;;7.60;4.85;;;;;;;9.86;60.14;100015.28;1550307;91;20982;-64
2023/06/07 03:01:29;;;;;;;6.65;4.22;;;;;;;9.95;60.43;100011.45;1551729;91;21136;-64
2023/06/07 03:03:56;;;;;;;8.63;4.62;;;;;;;10.02;60.17;100011.58;1551263;91;21050;-63
2023/06/07 03:06:23;;;;;;;10.48;5.70;;;;;;;10.05;60.18;100019.31;1552253;91;21056;-64
2023/06/07 03:08:50;;;;;;;9.67;4.60;;;;;;;10.12;60.43;100016.45;1551243;91;21092;-64
2023/06/07 03:11:18;;;;;;;8.38;4.35;;;;;;;10.22;60.47;100020.36;1585735;88;21080;-64
2023/06/07 03:13:44;;;;;;;9.15;5.28;;;;;;;10.33;60.42;100018.19;1549735;91;21078;-64
2023/06/07 03:16:10;;;;;;;8.85;4.40;;;;;;;10.41;60.38;100020.02;1573388;89;21536;-64
2023/06/07 03:18:37;;;;;;;10.13;4.35;;;;;;;10.46;60.40;100016.77;1586359;89;21001;-64
2023/06/07 03:21:03;;;;;;;7.50;3.98;;;;;;;10.49;60.36;100021.86;1593076;89;21020;-63
2023/06/07 03:23:30;;;;;;;12.82;4.55;;;;;;;10.55;60.38;100022.52;1551257;91;21072;-64
2023/06/07 03:25:59;;;;;;;17.87;5.83;;;;;;;10.61;60.41;100032.70;1551597;91;20987;-63
2023/06/07 03:28:26;;;;;;;8.88;4.08;;;;;;;10.65;60.48;100032.52;1591723;89;21092;-63
2023/06/07 03:30:52;;;;;;;8.38;4.15;;;;;;;10.67;60.50;100027.20;1550897;91;21109;-63
2023/06/07 03:33:19;;;;;;;17.32;4.78;;;;;;;10.63;60.50;100030.87;1587347;89;21091;-64
2023/06/07 03:35:46;;;;;;;16.90;5.33;;;;;;;10.61;60.64;100030.93;1588415;89;21477;-63
2023/06/07 03:38:12;;;;;;;14.65;5.10;;;;;;;10.62;60.79;100031.80;1589220;89;21582;-63
2023/06/07 03:40:38;;;;;;;16.60;5.70;;;;;;;10.67;60.85;100038.53;1587205;89;21032;-64
2023/06/07 03:43:04;;;;;;;17.70;5.70;;;;;;;10.73;60.87;100036.11;1603053;89;21044;-63
2023/06/07 03:45:30;;;;;;;7.78;4.30;;;;;;;10.78;60.89;100030.20;1586743;89;21592;-63
2023/06/07 03:47:57;;;;;;;10.05;4.50;;;;;;;10.84;60.90;100031.28;1584884;89;20958;-64
2023/06/07 03:50:24;;;;;;;10.10;4.42;;;;;;;11.00;61.13;100034.51;1599807;89;21074;-64
2023/06/07 03:52:50;;;;;;;12.03;4.55;;;;;;;11.12;61.11;100034.83;1580746;88;21044;-63
2023/06/07 03:55:19;;;;;;;9.50;4.10;;;;;;;11.23;61.12;100036.97;1584593;89;21139;-63
2023/06/07 03:57:46;;;;;;;11.20;4.17;;;;;;;11.36;61.21;100028.09;1598328;89;21535;-63
2023/06/07 04:00:15;;;;;;;6.55;4.03;;;;;;;11.49;61.07;100032.31;1590033;89;20978;-63
2023/06/07 04:02:41;;;;;;;5.87;4.22;;;;;;;11.59;61.08;100021.33;1589676;89;21048;-63
2023/06/07 04:05:09;;;;;;;10.80;5.07;;;;;;;11.74;61.40;100025.02;1580967;89;21546;-63
2023/06/07 04:07:35;;;;;;;15.95;4.30;;;;;;;11.94;61.45;100029.33;1588683;89;21021;-63
2023/06/07 04:10:01;;;;;;;67.50;10.32;;;;;;;12.12;61.51;100028.89;1583123;89;21044;-63
2023/06/07 04:12:27;;;;;;;58.98;10.43;;;;;;;12.17;61.43;100012.50;1590100;89;21044;-63
2023/06/07 04:14:54;;;;;;;54.38;7.37;;;;;;;12.40;61.48;100029.69;1579010;89;21005;-64
2023/06/07 04:17:20;;;;;;;16.40;4.75;;;;;;;12.42;61.59;100000.81;1587532;89;21059;-63
2023/06/07 04:19:49;;;;;;;10.25;4.47;;;;;;;12.74;61.63;100019.68;1547141;91;21563;-63
2023/06/07 04:22:16;;;;;;;5.65;4.20;;;;;;;12.94;61.62;100028.29;1583430;89;21033;-64
2023/06/07 04:24:42;;;;;;;8.83;4.20;;;;;;;13.12;61.63;100022.53;1589270;89;21049;-63
2023/06/07 04:27:11;;;;;;;9.35;4.45;;;;;;;13.31;61.71;100025.06;1594763;89;21563;-63
2023/06/07 04:29:40;;;;;;;11.33;5.75;;;;;;;13.49;61.60;100024.05;1598997;89;21057;-64
2023/06/07 04:32:13;;;;;;;13.32;4.55;;;;;;;13.65;61.64;100025.38;1548748;89;21037;-64
2023/06/07 04:34:41;;;;;;;9.98;4.20;;;;;;;13.84;61.64;100021.27;1601195;89;22122;-64
2023/06/07 04:37:06;;;;;;;9.20;4.22;;;;;;;14.00;61.67;100020.80;1598180;89;21120;-64
2023/06/07 04:39:36;;;;;;;16.87;5.30;;;;;;;14.20;61.73;100020.09;1578282;89;21001;-64
2023/06/07 04:42:05;;;;;;;9.78;5.55;;;;;;;14.42;61.78;100020.54;1586668;89;21048;-64
2023/06/07 04:44:36;;;;;;;9.10;4.67;;;;;;;14.63;61.72;100017.16;1573810;89;21072;-64
2023/06/07 04:47:01;;;;;;;11.57;3.70;;;;;;;14.83;61.83;100029.59;1591721;89;21124;-64
2023/06/07 04:49:28;;;;;;;22.90;5.92;;;;;;;14.99;61.93;100025.94;1580856;89;21546;-64
2023/06/07 04:51:58;;;;;;;22.58;4.62;;;;;;;15.20;62.12;100022.92;1585938;89;21062;-64
2023/06/07 04:54:28;;;;;;;19.50;6.17;;;;;;;15.40;62.10;100022.56;1578624;89;21542;-64
2023/06/07 04:56:56;;;;;;;16.65;4.62;;;;;;;15.63;62.04;100030.80;1598126;89;21093;-64
2023/06/07 04:59:24;;;;;;;31.73;6.70;;;;;;;15.86;62.10;100030.19;1581316;89;20988;-64
2023/06/07 05:01:51;;;;;;;27.15;5.45;;;;;;;16.07;62.05;100023.16;1600754;88;21107;-64
2023/06/07 05:04:18;;;;;;;;;;;;;;;16.30;62.01;100026.45;1597053;88;21508;-64
2023/06/07 05:06:44;;;;;;;12.85;4.92;;;;;;;16.49;61.86;100018.62;1598810;88;20186;-68
2023/06/07 05:09:11;;;;;;;15.50;4.22;;;;;;;16.63;61.81;100019.86;1602294;88;21055;-69
2023/06/07 05:11:37;;;;;;;20.43;4.60;;;;;;;16.84;61.83;100022.88;1596507;88;20989;-69
2023/06/07 05:14:04;;;;;;;21.25;4.92;;;;;;;17.07;61.67;100021.76;1600599;88;21242;-65
2023/06/07 05:16:33;;;;;;;10.93;4.08;;;;;;;17.28;61.49;100024.67;1597729;88;20970;-64
2023/06/07 05:19:03;;;;;;;11.93;4.22;;;;;;;17.48;61.42;100026.77;1594789;88;21068;-64
2023/06/07 05:21:28;;;;;;;10.68;3.70;;;;;;;17.66;61.30;100020.16;1593272;88;21539;-65
2023/06/07 05:23:54;;;;;;;14.37;3.73;;;;;;;17.89;61.12;100026.92;1599043;88;21569;-64
2023/06/07 05:26:22;;;;;;;14.83;3.30;;;;;;;18.07;60.88;100025.59;1598318;88;21609;-65
2023/06/07 05:28:48;;;;;;;7.37;3.42;;;;;;;18.27;60.86;100017.98;1604880;88;21567;-65
2023/06/07 05:31:18;;;;;;;7.83;3.47;;;;;;;18.45;60.75;100021.88;1598950;88;21068;-66
2023/06/07 05:33:45;;;;;;;5.15;3.12;;;;;;;18.59;60.50;100014.71;1599060;88;20972;-64
2023/06/07 05:36:11;;;;;;;7.90;3.30;;;;;;;18.74;60.42;100018.88;1558296;90;21032;-69
2023/06/07 05:38:38;;;;;;;5.47;3.55;;;;;;;18.91;60.32;100025.03;1559979;90;21005;-64
2023/06/07 05:41:07;;;;;;;6.40;3.15;;;;;;;19.14;60.16;100018.43;1561501;90;21028;-69
2023/06/07 05:43:34;;;;;;;10.60;2.72;;;;;;;19.27;59.93;100017.84;1561575;90;21032;-69
2023/06/07 05:46:03;;;;;;;9.30;3.50;;;;;;;19.36;59.76;100018.91;1561606;90;21044;-67
2023/06/07 05:48:30;;;;;;;9.05;3.77;;;;;;;19.49;59.63;100021.41;1561227;90;21568;-68
2023/06/07 05:51:00;;;;;;;7.00;2.67;;;;;;;19.58;59.52;100018.89;1560872;90;21009;-65
2023/06/07 05:53:27;;;;;;;7.42;3.55;;;;;;;19.77;59.55;100023.55;1561261;90;20969;-65
2023/06/07 05:55:55;;;;;;;5.53;3.22;;;;;;;19.95;59.15;100023.05;1560647;90;21136;-66
2023/06/07 05:58:24;;;;;;;8.23;2.62;;;;;;;20.08;59.11;100017.95;1530867;92;21570;-65
2023/06/07 06:00:53;;;;;;;6.35;2.98;;;;;;;20.28;58.82;100024.25;1582034;89;21666;-67
2023/06/07 06:03:20;;;;;;;;;;;;;;;20.41;58.60;100023.22;1588863;88;21678;-66
2023/06/07 06:05:47;;;;;;;;;;;;;;;20.58;58.37;100026.65;1592163;88;20178;-70
2023/06/07 06:08:15;;;;;;;4.60;2.75;;;;;;;20.85;58.19;100021.31;1590404;88;20152;-69
2023/06/07 06:10:44;;;;;;;9.88;2.75;;;;;;;21.13;58.03;100025.92;1584888;88;20984;-66
2023/06/07 06:13:11;;;;;;;8.23;3.27;;;;;;;21.29;57.70;100017.97;1604017;88;21540;-67
2023/06/07 06:15:37;;;;;;;4.17;2.80;;;;;;;21.31;57.35;100025.29;1605762;88;21095;-67
2023/06/07 06:18:04;;;;;;;6.53;2.77;;;;;;;21.44;57.22;100024.12;1594611;88;21005;-68
2023/06/07 06:20:33;;;;;;;4.65;3.20;;;;;;;21.47;56.66;100028.32;1587758;88;21094;-66
2023/06/07 06:22:59;;;;;;;4.70;2.37;;;;;;;21.64;56.83;100025.01;1588501;88;21072;-66
2023/06/07 06:25:25;;;;;;;3.67;2.77;;;;;;;21.83;56.13;100027.37;1596666;88;21000;-68
2023/06/07 06:27:53;;;;;;;9.45;2.60;;;;;;;21.93;55.98;100026.03;1571365;88;21543;-71
2023/06/07 06:30:20;;;;;;;6.97;2.80;;;;;;;22.15;55.80;100028.44;1599175;88;21099;-67
2023/06/07 06:32:47;;;;;;;5.28;2.05;;;;;;;22.29;55.41;100028.54;1594263;88;20975;-65
2023/06/07 06:35:18;;;;;;;3.25;2.30;;;;;;;22.52;54.85;100028.61;1596198;88;21067;-70
2023/06/07 06:37:44;;;;;;;11.20;2.80;;;;;;;22.64;54.54;100036.44;1594542;88;21107;-68
2023/06/07 06:40:12;;;;;;;11.20;3.47;;;;;;;22.95;54.33;100029.95;1592804;88;21076;-68
2023/06/07 06:42:40;;;;;;;5.30;2.70;;;;;;;23.10;54.25;100029.48;1602321;88;20976;-68
2023/06/07 06:45:07;;;;;;;5.90;2.40;;;;;;;23.39;54.15;100029.38;1600532;88;21024;-67
2023/06/07 06:47:36;;;;;;;;;;;;;;;23.71;53.96;100032.94;1595175;88;21055;-67
2023/06/07 06:50:02;;;;;;;7.50;2.33;;;;;;;24.20;53.32;100025.92;1590707;88;20139;-68
2023/06/07 06:52:28;;;;;;;8.15;2.77;;;;;;;24.54;53.37;100030.93;1601302;88;21563;-70
2023/06/07 06:54:58;;;;;;;8.13;3.27;;;;;;;25.12;53.15;100033.48;1596224;88;21099;-68
2023/06/07 06:57:24;;;;;;;3.35;2.15;;;;;;;26.01;53.49;100029.49;1589186;88;21606;-69
2023/06/07 06:59:50;;;;;;;12.28;2.70;;;;;;;27.17;52.62;100024.46;1598421;88;21100;-71
2023/06/07 07:02:17;;;;;;;5.87;2.45;;;;;;;27.99;52.07;100030.79;1592327;88;21126;-69
2023/06/07 07:04:46;;;;;;;5.60;2.62;;;;;;;28.92;51.34;100033.20;1596251;88;21079;-68
2023/06/07 07:07:14;;;;;;;7.08;2.30;;;;;;;29.97;50.60;100032.12;1596468;88;21075;-69
2023/06/07 07:09:41;;;;;;;6.75;2.40;;;;;;;30.70;49.57;100030.63;1597550;88;21075;-67
2023/06/07 07:12:12;;;;;;;5.33;2.27;;;;;;;31.36;48.91;100029.71;1601115;88;21071;-68
2023/06/07 07:14:36;;;;;;;5.97;2.37;;;;;;;31.41;47.91;100038.05;1600206;88;21091;-68
2023/06/07 07:17:04;;;;;;;2.25;1.90;;;;;;;31.34;47.03;100033.61;1602680;88;21562;-69
2023/06/07 07:19:30;;;;;;;7.08;2.40;;;;;;;31.30;46.64;100023.75;1608111;88;21178;-69
2023/06/07 07:22:01;;;;;;;6.50;2.50;;;;;;;31.87;46.87;100034.70;1599751;88;21119;-68
2023/06/07 07:24:25;;;;;;;4.55;2.60;;;;;;;32.97;45.78;100039.77;1591586;88;21078;-69
2023/06/07 07:26:51;;;;;;;8.05;2.02;;;;;;;33.46;44.50;100041.09;1606553;88;21012;-70
2023/06/07 07:29:17;;;;;;;5.25;2.50;;;;;;;33.93;43.49;100034.13;1593584;88;21071;-69
2023/06/07 07:31:44;;;;;;;3.65;2.12;;;;;;;34.29;43.10;100033.50;1603578;88;21052;-69
2023/06/07 07:34:12;;;;;;;3.47;2.08;;;;;;;35.62;41.83;100029.48;1600642;88;21606;-68
2023/06/07 07:36:39;;;;;;;3.98;2.10;;;;;;;36.23;41.46;100025.69;1596288;88;21060;-69
2023/06/07 07:39:05;;;;;;;5.03;2.30;;;;;;;36.71;39.89;100027.94;1600739;88;21028;-70
2023/06/07 07:41:32;;;;;;;8.58;2.00;;;;;;;36.93;39.67;100023.55;1607643;88;21036;-70
2023/06/07 07:43:59;;;;;;;3.30;2.42;;;;;;;37.44;38.07;100029.27;1608568;88;21012;-69
2023/06/07 07:46:25;;;;;;;6.97;2.35;;;;;;;37.17;37.32;100032.55;1600628;88;21094;-69
2023/06/07 07:48:51;;;;;;;4.08;2.12;;;;;;;37.77;36.98;100029.12;1605967;88;21533;-70
2023/06/07 07:51:18;;;;;;;6.85;2.10;;;;;;;38.47;36.09;100030.11;1604046;88;21016;-69
2023/06/07 07:53:44;;;;;;;4.72;2.10;;;;;;;39.88;35.38;100029.78;1592228;88;21007;-69
2023/06/07 07:56:10;;;;;;;3.80;1.72;;;;;;;41.36;34.07;100026.74;1600333;88;21127;-71
2023/06/07 07:58:36;;;;;;;8.23;2.60;;;;;;;40.84;32.47;100026.22;1605667;88;20972;-70
2023/06/07 08:01:03;;;;;;;5.37;1.80;;;;;;;40.37;31.54;100019.59;1609087;88;21034;-70
2023/06/07 08:03:32;;;;;;;5.97;2.17;;;;;;;40.94;31.55;100022.15;1577908;89;21028;-70
2023/06/07 08:06:01;;;;;;;3.92;2.10;;;;;;;41.57;30.20;100021.64;1563605;90;21075;-70
2023/06/07 08:08:28;;;;;;;4.65;1.70;;;;;;;40.81;29.43;100021.25;1582722;88;21011;-69
2023/06/07 08:10:54;;;;;;;4.62;2.20;;;;;;;40.25;28.80;100021.69;1577432;89;21659;-68
2023/06/07 08:13:27;;;;;;;6.17;1.92;;;;;;;40.78;28.57;100023.16;1567453;89;20987;-68
2023/06/07 08:15:50;;;;;;;5.20;2.20;;;;;;;41.33;27.87;100020.43;1581962;89;21083;-69
2023/06/07 08:18:18;;;;;;;6.12;2.05;;;;;;;42.75;26.97;100026.39;1558179;88;21047;-68
2023/06/07 08:20:47;;;;;;;3.17;2.05;;;;;;;42.32;26.03;100028.05;1588584;89;21068;-68
2023/06/07 08:23:12;;;;;;;5.78;2.47;;;;;;;41.80;25.71;100026.34;1577264;89;20994;-67
2023/06/07 08:25:39;;;;;;;6.92;1.72;;;;;;;42.40;25.44;100031.61;1571471;89;21053;-67
2023/06/07 08:28:07;;;;;;;4.28;2.12;;;;;;;42.54;24.92;100028.30;1583671;89;21069;-68
2023/06/07 08:30:38;;;;;;;5.92;1.95;;;;;;;43.37;24.55;100021.50;1583231;89;21043;-67
2023/06/07 08:33:01;;;;;;;2.50;2.00;;;;;;;44.48;24.05;100020.47;1561361;90;21604;-69
2023/06/07 08:35:27;;;;;;;8.73;2.15;;;;;;;45.34;23.37;100023.34;1561827;90;21076;-68
2023/06/07 08:38:00;;;;;;;5.08;2.20;;;;;;;46.32;22.77;100024.11;1579781;89;21064;-69
2023/06/07 08:40:24;;;;;;;7.30;2.72;;;;;;;46.54;22.41;100023.43;1562071;90;21034;-68
2023/06/07 08:42:50;;;;;;;4.67;2.00;;;;;;;46.17;21.36;100011.38;1571681;89;21031;-69
2023/06/07 08:45:16;;;;;;;7.70;2.22;;;;;;;45.42;20.92;100018.55;1579576;89;21465;-67
2023/06/07 08:47:44;;;;;;;4.58;2.20;;;;;;;45.05;20.73;100013.23;1576791;89;21054;-69
2023/06/07 08:50:13;;;;;;;6.08;2.58;;;;;;;44.89;20.07;100015.91;1577801;89;21071;-68
2023/06/07 08:52:41;;;;;;;9.88;2.30;;;;;;;45.25;19.72;100008.59;1561766;90;21043;-68
2023/06/07 08:55:14;;;;;;;5.05;2.20;;;;;;;45.75;19.16;100007.63;1557938;90;21021;-66
2023/06/07 08:57:43;;;;;;;4.80;2.22;;;;;;;44.99;18.98;100010.28;1560113;90;21076;-68
2023/06/07 09:00:11;;;;;;;5.90;2.20;;;;;;;44.86;18.89;100008.23;1562796;90;21059;-68
2023/06/07 09:02:39;;;;;;;3.52;2.02;;;;;;;45.34;18.25;100014.52;1566106;90;21086;-67
2023/06/07 09:05:06;;;;;;;6.75;2.30;;;;;;;44.39;18.18;100004.30;1560442;91;21635;-68
2023/06/07 09:07:33;;;;;;;5.28;2.37;;;;;;;44.29;18.19;100003.02;1578740;90;21395;-69
2023/06/07 09:09:59;;;;;;;3.75;1.98;;;;;;;45.79;17.87;100014.16;1546387;91;21056;-69
2023/06/07 09:12:27;;;;;;;7.60;2.52;;;;;;;47.59;17.78;100008.84;1604284;88;21016;-69
2023/06/07 09:14:54;;;;;;;7.40;2.35;;;;;;;48.22;17.28;100009.84;1596936;88;21046;-68
2023/06/07 09:17:22;;;;;;;12.65;2.30;;;;;;;48.22;16.58;100001.54;1601465;88;20988;-69
2023/06/07 09:19:50;;;;;;;5.40;2.02;;;;;;;47.00;16.14;100003.19;1589327;88;21530;-69
2023/06/07 09:22:20;;;;;;;8.15;2.50;;;;;;;44.49;16.25;99998.70;1602137;88;21070;-68
2023/06/07 09:24:48;;;;;;;6.00;2.10;;;;;;;43.76;16.09;100004.51;1590584;88;21620;-67
2023/06/07 09:27:14;;;;;;;8.88;2.37;;;;;;;42.80;16.49;100001.11;1593166;88;21116;-69
2023/06/07 09:29:44;;;;;;;5.42;2.27;;;;;;;42.45;16.30;100001.42;1591516;88;21154;-67
2023/06/07 09:32:21;;;;;;;5.87;2.70;;;;;;;42.14;16.23;100005.27;1594038;88;21012;-66
2023/06/07 09:34:52;;;;;;;5.85;2.33;;;;;;;41.64;16.06;100006.84;1595820;88;21142;-68
2023/06/07 09:37:20;;;;;;;6.97;2.50;;;;;;;41.27;16.67;100003.16;1579761;90;21056;-67
2023/06/07 09:39:51;;;;;;;9.00;2.37;;;;;;;41.27;16.70;100000.97;1578205;90;21053;-66
2023/06/07 09:42:17;;;;;;;7.85;1.98;;;;;;;42.55;17.01;99994.28;1573714;90;21063;-68
2023/06/07 09:44:44;;;;;;;4.58;2.35;;;;;;;43.82;16.83;99997.59;1548495;91;21155;-68
2023/06/07 09:47:23;;;;;;;5.58;2.15;;;;;;;45.00;16.49;100000.08;1547534;91;21681;-68
2023/06/07 09:49:54;;;;;;;8.48;2.72;;;;;;;46.75;16.63;100002.62;1553497;91;21112;-67
2023/06/07 09:52:18;;;;;;;6.28;2.47;;;;;;;47.23;16.03;99998.03;1547389;91;21040;-67
2023/06/07 09:54:46;;;;;;;9.38;2.58;;;;;;;47.37;15.70;100004.09;1595424;88;21092;-68
2023/06/07 09:57:28;;;;;;;9.05;2.85;;;;;;;47.96;15.63;99999.41;1603265;88;21086;-69
2023/06/07 10:00:10;;;;;;;5.75;2.40;;;;;;;46.98;14.71;99999.94;1601017;88;21060;-67
2023/06/07 10:02:34;;;;;;;6.58;2.47;;;;;;;45.77;14.85;99999.88;1597909;88;21113;-66
2023/06/07 10:05:01;;;;;;;7.03;1.92;;;;;;;44.93;14.12;99989.42;1538648;91;20970;-67
2023/06/07 10:07:36;;;;;;;3.62;2.20;;;;;;;41.31;14.13;100000.69;1558644;91;21592;-67
2023/06/07 10:10:03;;;;;;;4.47;2.02;;;;;;;39.98;15.24;99987.52;1556867;90;21041;-63
2023/06/07 10:12:35;;;;;;;4.87;1.80;;;;;;;39.16;15.22;99982.52;1552481;91;21029;-63
2023/06/07 10:15:02;;;;;;;6.35;2.33;;;;;;;38.00;15.45;99986.77;1559506;91;21104;-63
2023/06/07 10:17:57;;;;;;;4.95;2.02;;;;;;;37.01;16.04;99981.57;1554546;91;21018;-63
2023/06/07 10:20:26;;;;;;;3.35;2.17;;;;;;;36.92;16.66;99989.25;1577267;89;21085;-64
2023/06/07 10:23:02;;;;;;;3.83;2.33;;;;;;;36.35;17.09;99982.73;1582097;89;21293;-62
2023/06/07 10:25:32;;;;;;;7.45;2.22;;;;;;;36.44;17.56;99977.23;1589147;89;21075;-62
2023/06/07 10:28:11;;;;;;;8.30;2.70;;;;;;;37.40;17.92;99979.09;1579834;89;21725;-64
2023/06/07 10:30:43;;;;;;;4.92;2.10;;;;;;;37.17;17.85;99988.17;1596867;89;21072;-64
2023/06/07 10:33:10;;;;;;;6.97;2.27;;;;;;;37.21;18.30;99977.63;1591290;89;21361;-62
2023/06/07 10:35:39;;;;;;;3.85;1.95;;;;;;;38.12;18.73;99977.69;1585431;89;21005;-65
2023/06/07 10:38:05;;;;;;;5.00;2.47;;;;;;;39.79;18.69;99982.42;1584997;89;21060;-65
2023/06/07 10:40:32;;;;;;;4.92;2.37;;;;;;;40.36;18.10;99977.43;1593200;89;20996;-65
2023/06/07 10:42:59;;;;;;;4.53;1.82;;;;;;;41.23;18.40;99973.81;1584151;89;21393;-65
2023/06/07 10:45:25;;;;;;;4.08;2.10;;;;;;;42.25;17.99;99982.22;1581798;89;21096;-65
2023/06/07 10:47:52;;;;;;;13.75;2.12;;;;;;;42.53;17.77;99969.03;1596325;89;21552;-65
2023/06/07 10:50:31;;;;;;;6.08;2.45;;;;;;;42.36;17.58;99963.86;1583629;89;22177;-66
2023/06/07 10:53:01;;;;;;;8.43;2.58;;;;;;;42.61;17.48;99973.95;1557537;91;21450;-65
2023/06/07 10:55:31;;;;;;;5.40;2.15;;;;;;;41.75;16.71;99975.61;1586706;89;21484;-65
2023/06/07 10:57:59;;;;;;;5.70;2.27;;;;;;;40.32;16.84;99974.95;1594190;89;21080;-66
2023/06/07 11:00:32;;;;;;;8.60;2.70;;;;;;;40.20;16.90;99978.70;1594769;89;21095;-66
2023/06/07 11:03:16;;;;;;;6.65;2.17;;;;;;;40.52;16.85;99977.00;1596965;88;21115;-65
2023/06/07 11:06:02;;;;;;;3.98;2.40;;;;;;;40.66;16.38;99970.81;1592011;89;21036;-66
2023/06/07 11:08:36;;;;;;;6.70;2.67;;;;;;;39.44;16.39;99967.00;1593346;89;21033;-65
2023/06/07 11:11:05;;;;;;;6.33;2.30;;;;;;;38.19;16.43;99957.91;1577804;89;21081;-65
2023/06/07 11:13:41;;;;;;;4.53;2.52;;;;;;;37.41;16.69;99964.39;1547317;91;21065;-64
2023/06/07 11:16:28;;;;;;;3.45;2.50;;;;;;;36.72;16.83;99962.44;1582022;89;21571;-65
2023/06/07 11:19:16;;;;;;;3.80;2.10;;;;;;;36.94;17.27;99969.95;1580367;89;21052;-64
2023/06/07 11:22:00;;;;;;;10.18;2.65;;;;;;;36.88;17.02;99960.84;1560305;90;21088;-64
2023/06/07 11:24:27;;;;;;;4.97;2.30;;;;;;;36.54;17.38;99961.19;1558923;90;21078;-65
2023/06/07 11:26:53;;;;;;;3.92;2.60;;;;;;;36.05;17.46;99959.20;1558939;91;21028;-64
2023/06/07 11:29:21;;;;;;;5.40;2.08;;;;;;;35.22;17.45;99952.60;1561595;91;20969;-67
2023/06/07 11:31:50;;;;;;;8.53;2.30;;;;;;;34.48;17.88;99949.83;1561607;91;21003;-66